Time;durP1;ratioP1;P1;durP2;ratioP2;P2;SDS_P1;SDS_P2;PMS_P1;PMS_P2;Temp;Humidity;BMP_temperature;BMP_pressure;BME280_temperature;BME280_humidity;BME280_pressure;Samples;Min_cycle;Max_cycle;Signal;HPM_P1;HPM_P2
2022/04/11 00:00:23;;;;;;;6.32;3.78;;;;;;;4.34;72.44;100628.16;5015924;28;20041;-79
2022/04/11 00:02:50;;;;;;;4.68;3.08;;;;;;;4.12;72.88;100598.72;5014339;28;20030;-80
2022/04/11 00:05:16;;;;;;;7.75;3.92;;;;;;;4.15;73.49;100626.84;4997828;28;20032;-80
2022/04/11 00:07:43;;;;;;;10.45;4.80;;;;;;;4.11;73.41;100626.09;5015692;28;20100;-81
2022/04/11 00:10:08;;;;;;;6.15;4.75;;;;;;;4.09;74.19;100625.75;5014281;28;20045;-81
2022/04/11 00:12:36;;;;;;;9.45;5.50;;;;;;;3.94;73.84;100621.56;4997651;28;20033;-79
2022/04/11 00:15:06;;;;;;;11.93;6.47;;;;;;;3.93;73.88;100625.59;5014399;28;20096;-79
2022/04/11 00:17:34;;;;;;;10.18;5.22;;;;;;;3.80;74.88;100622.56;5014282;28;20025;-80
2022/04/11 00:20:08;;;;;;;6.53;5.07;;;;;;;3.64;74.94;100613.97;5014256;28;20033;-80
2022/04/11 00:22:35;;;;;;;10.13;5.60;;;;;;;3.67;75.35;100626.38;5015581;28;20026;-80
2022/04/11 00:25:16;;;;;;;10.05;5.95;;;;;;;3.58;75.58;100626.91;4981433;28;20033;-80
2022/04/11 00:27:41;;;;;;;10.45;5.57;;;;;;;3.59;75.80;100633.34;5015388;28;20057;-80
2022/04/11 00:30:08;;;;;;;6.82;5.70;;;;;;;3.61;76.49;100623.25;5015368;28;20021;-81
2022/04/11 00:32:40;;;;;;;7.95;5.22;;;;;;;3.75;76.12;100639.16;5015391;28;20463;-80
2022/04/11 00:35:08;;;;;;;9.55;5.88;;;;;;;3.82;76.27;100628.56;5013281;28;20108;-81
2022/04/11 00:37:34;;;;;;;8.73;5.75;;;;;;;3.85;75.53;100624.09;5013565;28;20056;-80
2022/04/11 00:40:00;;;;;;;10.02;5.55;;;;;;;3.78;75.17;100624.22;4997282;28;20542;-80
2022/04/11 00:42:31;;;;;;;10.75;5.45;;;;;;;3.71;75.59;100636.38;5013771;28;20018;-81
2022/04/11 00:45:06;;;;;;;10.13;5.00;;;;;;;3.62;75.85;100629.69;5014672;28;20469;-81
2022/04/11 00:47:33;;;;;;;8.68;5.63;;;;;;;3.57;75.75;100642.22;5014711;28;20030;-80
2022/04/11 00:50:07;;;;;;;10.88;5.45;;;;;;;3.48;75.44;100636.31;4996609;28;20479;-80
2022/04/11 00:52:35;;;;;;;10.88;6.88;;;;;;;3.42;75.91;100635.16;4997152;28;20068;-80
2022/04/11 00:55:22;;;;;;;12.80;6.25;;;;;;;3.33;76.47;100643.34;4996862;28;20037;-81
2022/04/11 00:57:48;;;;;;;12.55;4.95;;;;;;;3.26;76.37;100643.41;4996661;28;20033;-80
2022/04/11 01:00:14;;;;;;;12.55;6.03;;;;;;;3.13;76.58;100634.72;4980642;28;20431;-80
2022/04/11 01:02:39;;;;;;;11.35;5.30;;;;;;;3.11;76.55;100642.78;5012528;28;20041;-80
2022/04/11 01:05:12;;;;;;;9.38;5.20;;;;;;;3.11;76.72;100650.47;5012984;28;20383;-80
2022/04/11 01:07:37;;;;;;;;;;;;;;;3.02;76.87;100654.53;4997565;28;20065;-80
2022/04/11 01:10:04;;;;;;;9.85;4.95;;;;;;;2.96;77.16;100653.41;5013112;28;20330;-78
2022/04/11 01:12:30;;;;;;;8.25;5.50;;;;;;;2.98;77.03;100653.78;5012972;28;20022;-79
2022/04/11 01:14:56;;;;;;;10.13;5.80;;;;;;;2.95;77.02;100657.47;4996587;28;20352;-79
2022/04/11 01:17:43;;;;;;;7.60;5.85;;;;;;;2.90;77.47;100651.50;5008889;28;20045;-80
2022/04/11 01:20:13;;;;;;;7.45;5.45;;;;;;;2.83;76.92;100655.16;5013203;28;20469;-80
2022/04/11 01:22:39;;;;;;;10.32;5.68;;;;;;;2.82;77.53;100667.63;5014573;28;20026;-80
2022/04/11 01:25:06;;;;;;;9.73;4.85;;;;;;;2.77;77.97;100654.00;5013283;28;20034;-80
2022/04/11 01:27:33;;;;;;;7.30;4.68;;;;;;;2.76;77.54;100660.88;5012835;28;20034;-80
2022/04/11 01:29:58;;;;;;;11.63;5.57;;;;;;;2.74;77.83;100663.28;5013414;28;20088;-79
2022/04/11 01:32:25;;;;;;;10.13;5.18;;;;;;;2.66;78.21;100647.72;5012867;28;20475;-80
2022/04/11 01:34:50;;;;;;;8.05;4.95;;;;;;;2.73;78.06;100658.88;5013008;28;20018;-80
2022/04/11 01:37:16;;;;;;;7.43;4.13;;;;;;;2.72;77.51;100676.16;5012884;28;20578;-80
2022/04/11 01:39:41;;;;;;;8.45;5.10;;;;;;;2.69;77.62;100668.56;5012878;28;20026;-81
2022/04/11 01:42:08;;;;;;;8.73;4.07;;;;;;;2.61;78.14;100662.22;5012534;28;20037;-81
2022/04/11 01:44:33;;;;;;;9.88;4.68;;;;;;;2.61;78.21;100671.44;5012468;28;20068;-79
2022/04/11 01:46:58;;;;;;;6.90;4.22;;;;;;;2.56;77.60;100666.28;4995947;28;20053;-80
2022/04/11 01:49:25;;;;;;;9.35;4.22;;;;;;;2.59;77.94;100676.69;5014077;28;20048;-80
2022/04/11 01:51:52;;;;;;;9.90;4.35;;;;;;;2.51;78.28;100669.56;4995868;28;20054;-81
2022/04/11 01:54:18;;;;;;;7.80;5.57;;;;;;;2.52;78.71;100682.38;5012640;28;20045;-79
2022/04/11 01:56:44;;;;;;;5.93;4.10;;;;;;;2.51;78.52;100683.59;5013822;28;20050;-79
2022/04/11 01:59:09;;;;;;;7.43;4.97;;;;;;;2.38;78.92;100668.44;5013830;28;20022;-80
2022/04/11 02:01:35;;;;;;;6.72;4.28;;;;;;;2.49;78.61;100679.59;5013655;28;20017;-81
2022/04/11 02:04:00;;;;;;;9.25;5.03;;;;;;;2.48;78.87;100684.41;5013570;28;20108;-81
2022/04/11 02:06:25;;;;;;;9.05;5.38;;;;;;;2.50;78.86;100687.63;4995833;28;20041;-80
2022/04/11 02:08:52;;;;;;;6.20;4.18;;;;;;;2.49;78.64;100690.84;5012325;28;20467;-80
2022/04/11 02:11:19;;;;;;;8.38;4.93;;;;;;;2.51;79.18;100696.84;5013383;28;20428;-79
2022/04/11 02:13:44;;;;;;;6.90;4.38;;;;;;;2.50;78.87;100690.44;5013506;28;20029;-79
2022/04/11 02:16:10;;;;;;;7.88;5.00;;;;;;;2.52;79.15;100690.81;5012372;28;20018;-80
2022/04/11 02:18:35;;;;;;;8.07;4.07;;;;;;;2.52;78.47;100682.38;5012374;28;20029;-81
2022/04/11 02:21:01;;;;;;;8.95;4.95;;;;;;;2.50;78.47;100686.81;5012396;28;20062;-81
2022/04/11 02:23:28;;;;;;;7.68;4.75;;;;;;;2.48;78.49;100690.03;4995718;28;20032;-80
2022/04/11 02:25:54;;;;;;;8.82;4.22;;;;;;;2.39;78.88;100680.47;5012024;28;20030;-80
2022/04/11 02:28:34;;;;;;;7.72;4.13;;;;;;;2.51;79.08;100700.47;4995594;28;20030;-80
2022/04/11 02:31:00;;;;;;;10.55;5.32;;;;;;;2.49;78.99;100702.09;4994108;28;20037;-80
2022/04/11 02:33:26;;;;;;;7.65;5.90;;;;;;;2.50;78.71;100701.69;5011991;28;20029;-80
2022/04/11 02:35:51;;;;;;;8.27;5.97;;;;;;;2.52;78.81;100696.44;5011959;28;20040;-80
2022/04/11 02:38:17;;;;;;;8.30;5.22;;;;;;;2.54;78.73;100701.63;4995515;28;20555;-79
2022/04/11 02:40:43;;;;;;;11.27;5.95;;;;;;;2.50;79.46;100693.25;5011884;28;20022;-81
2022/04/11 02:43:09;;;;;;;7.45;5.07;;;;;;;2.58;78.90;100696.78;5012252;28;20033;-81
2022/04/11 02:45:36;;;;;;;12.75;5.72;;;;;;;2.61;79.21;100696.75;5011799;28;20076;-79
2022/04/11 02:48:01;;;;;;;10.90;5.45;;;;;;;2.64;79.02;100692.31;5013215;28;20030;-80
2022/04/11 02:50:28;;;;;;;9.38;5.70;;;;;;;2.74;78.30;100697.03;5011233;28;20046;-79
2022/04/11 02:52:53;;;;;;;7.28;4.65;;;;;;;2.81;78.74;100691.34;5011564;28;20034;-80
2022/04/11 02:55:18;;;;;;;9.30;5.22;;;;;;;2.89;78.52;100692.06;4995095;28;20041;-79
2022/04/11 02:57:45;;;;;;;11.25;4.60;;;;;;;2.95;78.16;100684.78;4995200;28;20506;-80
2022/04/11 03:00:15;;;;;;;8.77;5.10;;;;;;;3.06;77.97;100684.69;5010574;28;20455;-79
2022/04/11 03:02:47;;;;;;;8.07;5.07;;;;;;;3.16;78.14;100692.22;5011598;28;20030;-80
2022/04/11 03:05:13;;;;;;;7.28;4.55;;;;;;;3.21;77.86;100686.09;5010496;28;20022;-81
2022/04/11 03:07:38;;;;;;;9.10;5.22;;;;;;;3.22;77.88;100670.81;5026750;28;20336;-81
2022/04/11 03:10:07;;;;;;;11.05;5.22;;;;;;;3.38;77.72;100680.28;5010906;28;20471;-81
2022/04/11 03:12:34;;;;;;;9.57;5.32;;;;;;;3.50;77.33;100675.31;5012155;28;20079;-80
2022/04/11 03:15:01;;;;;;;7.15;4.38;;;;;;;3.53;77.79;100661.19;5010770;28;20022;-81
2022/04/11 03:17:27;;;;;;;10.75;5.13;;;;;;;3.70;77.35;100688.28;5012866;28;20385;-80
2022/04/11 03:19:53;;;;;;;8.38;5.00;;;;;;;3.77;77.10;100682.56;5012792;28;20160;-80
2022/04/11 03:22:20;;;;;;;11.18;4.72;;;;;;;3.84;76.75;100684.50;4995128;28;20386;-81
2022/04/11 03:24:46;;;;;;;11.18;4.80;;;;;;;3.76;76.63;100674.53;5012675;28;20033;-80
2022/04/11 03:27:13;;;;;;;6.53;4.18;;;;;;;3.87;76.97;100690.06;5015311;28;20471;-80
2022/04/11 03:29:39;;;;;;;10.27;4.07;;;;;;;3.83;76.66;100671.63;5016393;28;20097;-79
2022/04/11 03:32:06;;;;;;;9.55;5.45;;;;;;;3.82;76.28;100681.31;5016248;28;20364;-81
2022/04/11 03:34:32;;;;;;;11.43;4.82;;;;;;;3.88;76.51;100694.50;5015540;28;20034;-81
2022/04/11 03:36:57;;;;;;;7.18;4.30;;;;;;;3.91;76.53;100699.28;5014989;28;20033;-82
2022/04/11 03:39:26;;;;;;;11.43;5.60;;;;;;;3.93;76.27;100681.94;5014856;28;20391;-81
2022/04/11 03:41:51;;;;;;;6.60;4.10;;;;;;;3.99;76.52;100693.56;5016247;28;20021;-81
2022/04/11 03:44:18;;;;;;;8.82;4.57;;;;;;;3.92;76.06;100681.16;4998333;28;20036;-81
2022/04/11 03:46:43;;;;;;;10.60;5.13;;;;;;;3.99;76.58;100679.47;5014822;28;20030;-81
2022/04/11 03:49:09;;;;;;;7.88;4.45;;;;;;;4.07;75.75;100683.75;5015950;28;20108;-81
2022/04/11 03:51:35;;;;;;;8.18;4.30;;;;;;;4.00;75.93;100669.75;5015756;28;20380;-82
2022/04/11 03:54:01;;;;;;;9.02;4.93;;;;;;;4.09;75.48;100684.16;5015837;28;20523;-81
2022/04/11 03:56:27;;;;;;;8.18;4.63;;;;;;;4.14;75.60;100692.13;5015716;28;20022;-81
2022/04/11 03:58:53;;;;;;;8.73;4.50;;;;;;;4.12;75.58;100688.91;5014375;28;20112;-80
2022/04/11 04:01:18;;;;;;;7.00;4.20;;;;;;;4.15;75.88;100694.50;4997951;28;20026;-80
2022/04/11 04:03:45;;;;;;;11.05;4.40;;;;;;;4.18;75.77;100681.59;5014150;28;20018;-80
2022/04/11 04:06:11;;;;;;;11.02;3.88;;;;;;;4.20;75.80;100688.38;5014190;28;20128;-80
2022/04/11 04:08:37;;;;;;;13.82;4.97;;;;;;;4.19;75.45;100691.66;5014485;28;20103;-79
2022/04/11 04:11:03;;;;;;;8.82;4.32;;;;;;;4.18;75.03;100690.84;5015462;28;20073;-80
2022/04/11 04:13:28;;;;;;;8.55;4.93;;;;;;;4.29;74.96;100699.13;5014030;28;20025;-80
2022/04/11 04:15:54;;;;;;;10.85;4.50;;;;;;;4.32;74.57;100699.06;5014030;28;20026;-80
2022/04/11 04:18:22;;;;;;;10.65;4.95;;;;;;;4.33;74.74;100702.69;5014069;28;20113;-81
2022/04/11 04:20:48;;;;;;;10.27;4.95;;;;;;;4.35;74.72;100703.84;5013907;28;20026;-80
2022/04/11 04:23:16;;;;;;;6.82;4.93;;;;;;;4.43;75.09;100718.66;5014046;28;20026;-80
2022/04/11 04:25:44;;;;;;;11.63;4.63;;;;;;;4.40;74.67;100710.22;5013813;28;20566;-79
2022/04/11 04:28:10;;;;;;;12.80;4.57;;;;;;;4.47;74.66;100721.41;4997385;28;20057;-79
2022/04/11 04:30:35;;;;;;;7.30;3.83;;;;;;;4.32;73.40;100696.25;4997443;28;20021;-80
2022/04/11 04:33:02;;;;;;;10.70;4.40;;;;;;;4.38;73.99;100709.88;5015099;28;20036;-80
2022/04/11 04:35:29;;;;;;;8.27;4.05;;;;;;;4.51;74.24;100725.75;5012958;28;20049;-81
2022/04/11 04:37:54;;;;;;;8.65;4.28;;;;;;;4.54;73.83;100727.72;5013201;28;20026;-81
2022/04/11 04:40:20;;;;;;;7.85;3.78;;;;;;;4.59;73.45;100726.44;5014015;28;20037;-81
2022/04/11 04:42:46;;;;;;;12.82;4.07;;;;;;;4.54;73.01;100712.84;5013903;28;20021;-81
2022/04/11 04:45:12;;;;;;;6.47;4.15;;;;;;;4.64;72.47;100731.59;5015018;28;20037;-81
2022/04/11 04:47:39;;;;;;;7.82;3.70;;;;;;;4.67;72.64;100723.09;5013642;28;20034;-81
2022/04/11 04:50:05;;;;;;;10.77;5.53;;;;;;;4.82;72.73;100739.78;5013072;28;20026;-81
2022/04/11 04:52:32;;;;;;;11.50;4.50;;;;;;;4.91;72.46;100742.84;4996972;28;20026;-81
2022/04/11 04:54:58;;;;;;;11.50;5.05;;;;;;;4.94;71.55;100741.97;4996259;28;20466;-82
2022/04/11 04:57:25;;;;;;;9.18;4.40;;;;;;;4.90;71.34;100724.28;4997052;28;20038;-81
2022/04/11 04:59:51;;;;;;;14.07;4.30;;;;;;;4.98;71.90;100726.56;5014874;28;20026;-76
2022/04/11 05:02:19;;;;;;;7.07;3.47;;;;;;;5.23;71.15;100746.66;5014387;28;20048;-77
2022/04/11 05:04:45;;;;;;;7.95;3.70;;;;;;;5.38;70.59;100749.25;5014765;28;20030;-79
2022/04/11 05:07:15;;;;;;;9.77;3.90;;;;;;;5.47;69.73;100747.44;5014444;28;20104;-82
2022/04/11 05:09:42;;;;;;;8.32;3.53;;;;;;;5.54;69.57;100750.13;5014288;28;20097;-79
2022/04/11 05:12:08;;;;;;;8.68;4.07;;;;;;;5.67;69.36;100749.47;4980660;28;20053;-78
2022/04/11 05:14:34;;;;;;;9.05;4.15;;;;;;;5.75;69.13;100765.84;4996721;28;20033;-78
2022/04/11 05:16:59;;;;;;;14.57;3.70;;;;;;;5.73;69.28;100731.56;5013066;28;20034;-79
2022/04/11 05:19:24;;;;;;;7.13;3.92;;;;;;;5.96;68.75;100759.78;5013327;28;20065;-78
2022/04/11 05:21:49;;;;;;;7.35;3.80;;;;;;;5.92;67.96;100735.66;5014370;28;20026;-80
2022/04/11 05:24:16;;;;;;;10.38;3.88;;;;;;;6.06;68.20;100763.63;5012700;28;20018;-79
2022/04/11 05:26:41;;;;;;;7.97;3.53;;;;;;;6.13;67.72;100754.16;4996094;28;20042;-81
2022/04/11 05:29:07;;;;;;;11.23;3.65;;;;;;;6.23;66.64;100758.78;5012666;28;20498;-79
2022/04/11 05:31:33;;;;;;;13.55;4.38;;;;;;;6.34;67.15;100760.16;5012439;28;20030;-78
2022/04/11 05:34:01;;;;;;;8.68;3.13;;;;;;;6.43;66.66;100751.84;5014304;28;20037;-78
2022/04/11 05:36:28;;;;;;;10.90;4.07;;;;;;;6.57;65.86;100756.38;5014080;28;20174;-77
2022/04/11 05:38:53;;;;;;;8.43;3.17;;;;;;;6.77;65.20;100759.13;5014343;28;20025;-80
2022/04/11 05:41:18;;;;;;;12.38;3.70;;;;;;;6.88;65.06;100754.00;5012898;28;20033;-80
2022/04/11 05:43:44;;;;;;;9.63;3.40;;;;;;;6.96;64.61;100763.13;5013036;28;20026;-81
2022/04/11 05:46:10;;;;;;;10.05;3.70;;;;;;;7.08;63.84;100751.06;5012610;28;20550;-80
2022/04/11 05:48:36;;;;;;;10.00;3.70;;;;;;;7.23;63.32;100755.91;5012352;28;20030;-81
2022/04/11 05:51:02;;;;;;;10.02;3.38;;;;;;;7.34;62.70;100762.09;4994579;28;20108;-81
2022/04/11 05:53:27;;;;;;;15.68;4.85;;;;;;;7.56;62.68;100759.47;5014267;28;20358;-81
2022/04/11 05:55:55;;;;;;;8.68;3.42;;;;;;;7.76;62.29;100760.09;4995704;28;20398;-81
2022/04/11 05:58:22;;;;;;;8.65;3.15;;;;;;;7.95;61.43;100766.84;5012468;28;20088;-81
2022/04/11 06:00:48;;;;;;;13.40;3.67;;;;;;;8.14;61.38;100754.53;5014317;28;20104;-81
2022/04/11 06:03:14;;;;;;;7.55;3.00;;;;;;;8.18;59.33;100743.09;5012385;28;20418;-80
2022/04/11 06:05:40;;;;;;;13.55;3.40;;;;;;;8.53;59.70;100761.09;5010975;28;20026;-80
2022/04/11 06:08:05;;;;;;;8.70;3.58;;;;;;;8.79;58.95;100773.22;5011099;28;20030;-81
2022/04/11 06:10:31;;;;;;;14.13;3.40;;;;;;;8.93;57.95;100776.38;5012539;28;20110;-80
2022/04/11 06:12:58;;;;;;;10.23;2.95;;;;;;;9.16;57.41;100768.75;5010921;28;20057;-81
2022/04/11 06:15:23;;;;;;;9.82;2.90;;;;;;;9.17;56.29;100756.94;4994384;28;20519;-81
2022/04/11 06:17:49;;;;;;;11.60;3.85;;;;;;;9.44;56.50;100771.38;5012779;28;20112;-81
2022/04/11 06:20:14;;;;;;;12.98;4.10;;;;;;;9.72;56.46;100771.63;4996011;28;20112;-81
2022/04/11 06:22:41;;;;;;;8.82;4.15;;;;;;;9.91;54.97;100781.91;4995881;28;20521;-80
2022/04/11 06:25:08;;;;;;;9.32;3.17;;;;;;;9.91;55.13;100773.38;5013291;28;20038;-81
2022/04/11 06:27:36;;;;;;;10.57;3.50;;;;;;;9.97;54.49;100775.13;5012371;28;20029;-80
2022/04/11 06:30:05;;;;;;;16.48;3.22;;;;;;;10.02;53.77;100770.88;4996007;28;20140;-81
2022/04/11 06:32:32;;;;;;;14.35;3.40;;;;;;;10.27;53.97;100778.50;5012224;28;20483;-81
2022/04/11 06:34:59;;;;;;;12.40;3.53;;;;;;;10.48;54.19;100769.16;4996379;28;20454;-82
2022/04/11 06:37:25;;;;;;;9.57;2.58;;;;;;;11.15;52.56;100769.22;5012799;28;20038;-82
2022/04/11 06:39:52;;;;;;;13.27;3.80;;;;;;;12.59;48.75;100765.19;4996339;28;20079;-82
2022/04/11 06:42:18;;;;;;;8.30;2.83;;;;;;;13.35;47.33;100759.72;4994474;28;20136;-82
2022/04/11 06:44:43;;;;;;;8.85;2.92;;;;;;;14.30;45.10;100763.69;5013237;28;20128;-82
2022/04/11 06:47:09;;;;;;;16.15;4.03;;;;;;;15.55;42.01;100756.00;5013541;28;20429;-82
2022/04/11 06:49:37;;;;;;;9.05;2.80;;;;;;;16.85;38.67;100746.09;5013352;28;20026;-84
2022/04/11 06:52:05;;;;;;;15.43;3.28;;;;;;;18.13;36.63;100749.59;4995448;28;20054;-83
2022/04/11 06:54:33;;;;;;;27.48;4.70;;;;;;;18.62;34.92;100741.56;4995634;28;20034;-84
2022/04/11 06:57:00;;;;;;;10.00;3.50;;;;;;;18.90;34.87;100750.97;5012272;28;20033;-83
2022/04/11 06:59:27;;;;;;;13.73;3.53;;;;;;;19.99;33.02;100746.72;5013209;28;20108;-84
2022/04/11 07:01:53;;;;;;;5.53;2.20;;;;;;;20.60;31.06;100752.91;5016588;28;20140;-85
2022/04/11 07:04:19;;;;;;;9.80;2.53;;;;;;;20.62;30.08;100761.06;5016094;28;20430;-85
2022/04/11 07:06:45;;;;;;;9.13;3.13;;;;;;;20.41;30.37;100754.91;5016210;28;20545;-85
2022/04/11 07:09:11;;;;;;;21.42;4.50;;;;;;;20.63;30.13;100763.41;5016911;28;20029;-85
2022/04/11 07:11:37;;;;;;;8.95;2.55;;;;;;;21.02;28.54;100751.47;5016121;28;20133;-85
2022/04/11 07:14:05;;;;;;;12.13;2.65;;;;;;;21.73;28.57;100756.25;5016733;28;20017;-86
2022/04/11 07:16:31;;;;;;;14.00;2.95;;;;;;;22.69;27.59;100757.25;5014075;28;20041;-85
2022/04/11 07:18:57;;;;;;;6.95;3.00;;;;;;;23.80;25.71;100755.19;4999986;28;20356;-85
2022/04/11 07:21:24;;;;;;;5.07;2.65;;;;;;;24.65;24.66;100749.03;5014551;28;20029;-85
2022/04/11 07:23:51;;;;;;;11.25;3.00;;;;;;;24.90;23.57;100744.44;5038842;28;20061;-86
2022/04/11 07:26:16;;;;;;;7.97;2.60;;;;;;;24.92;23.40;100745.44;5013959;28;20120;-84
2022/04/11 07:28:46;;;;;;;13.15;3.08;;;;;;;25.24;22.45;100753.88;5037631;28;20064;-84
2022/04/11 07:31:11;;;;;;;9.57;2.65;;;;;;;25.28;22.47;100765.16;5037159;28;20031;-84
2022/04/11 07:33:37;;;;;;;10.10;2.83;;;;;;;25.68;21.62;100746.00;5034189;28;20064;-83
2022/04/11 07:36:06;;;;;;;5.88;2.67;;;;;;;26.06;21.16;100763.72;5019808;28;20034;-78
2022/04/11 07:38:32;;;;;;;9.98;2.83;;;;;;;26.52;21.61;100758.06;5016579;28;20030;-77
2022/04/11 07:40:58;;;;;;;14.43;2.75;;;;;;;27.09;19.91;100752.69;5014435;28;20038;-83
2022/04/11 07:43:24;;;;;;;5.80;2.10;;;;;;;27.20;19.29;100737.66;5000285;28;20113;-77
2022/04/11 07:45:50;;;;;;;5.00;2.15;;;;;;;26.06;20.42;100754.16;5018162;28;20026;-77
2022/04/11 07:48:16;;;;;;;16.95;3.75;;;;;;;25.09;24.37;100750.81;5016429;28;20041;-76
2022/04/11 07:50:43;;;;;;;12.55;2.97;;;;;;;24.00;28.46;100765.34;5020155;28;20041;-74
2022/04/11 07:53:11;;;;;;;3.72;1.38;;;;;;;23.38;24.28;100748.38;5036545;28;20063;-74
2022/04/11 07:55:38;;;;;;;9.43;2.22;;;;;;;22.65;22.56;100753.88;5033427;28;20508;-76
2022/04/11 07:58:07;;;;;;;4.20;1.65;;;;;;;23.23;24.35;100757.63;5032109;28;20125;-80
2022/04/11 08:00:35;;;;;;;5.05;2.10;;;;;;;23.43;23.25;100755.41;5018583;28;20040;-81
2022/04/11 08:03:00;;;;;;;7.82;2.20;;;;;;;24.08;21.52;100760.38;5026962;28;20472;-75
2022/04/11 08:05:26;;;;;;;3.92;1.40;;;;;;;24.72;21.09;100765.78;5036522;28;20055;-81
2022/04/11 08:07:54;;;;;;;7.82;2.20;;;;;;;25.00;20.81;100756.38;5020961;28;20022;-73
2022/04/11 08:10:23;;;;;;;10.70;2.50;;;;;;;25.38;20.47;100763.28;5011077;28;20037;-75
2022/04/11 08:12:59;;;;;;;4.63;2.35;;;;;;;24.14;20.17;100775.63;5016004;28;20100;-74
2022/04/11 08:15:27;;;;;;;3.15;1.83;;;;;;;23.07;20.78;100763.75;5011451;28;20034;-75
2022/04/11 08:17:54;;;;;;;9.23;2.83;;;;;;;22.98;22.86;100779.50;4998312;28;20049;-77
2022/04/11 08:20:22;;;;;;;10.35;3.28;;;;;;;22.65;23.52;100759.66;5014822;28;20394;-77
2022/04/11 08:22:48;;;;;;;4.40;2.10;;;;;;;22.44;22.94;100762.41;5015817;28;20041;-78
2022/04/11 08:25:16;;;;;;;4.88;1.63;;;;;;;22.81;24.28;100773.97;5024214;28;20026;-77
2022/04/11 08:27:43;;;;;;;5.40;1.60;;;;;;;23.24;23.12;100767.91;5016443;28;20415;-73
2022/04/11 08:30:10;;;;;;;6.18;2.00;;;;;;;24.07;20.57;100776.31;5014419;28;20042;-77
2022/04/11 08:32:39;;;;;;;9.05;2.60;;;;;;;23.49;20.93;100773.53;5014245;28;20026;-78
2022/04/11 08:35:07;;;;;;;3.97;2.00;;;;;;;22.22;22.63;100783.03;5031190;28;20079;-75
2022/04/11 08:37:37;;;;;;;5.32;2.30;;;;;;;20.66;24.19;100782.59;5017544;28;20033;-74
2022/04/11 08:40:07;;;;;;;20.02;4.55;;;;;;;19.44;25.88;100788.19;5033933;28;20033;-74
2022/04/11 08:42:33;;;;;;;4.90;2.70;;;;;;;18.95;26.21;100782.72;5035178;28;20040;-74
2022/04/11 08:45:00;;;;;;;5.15;2.42;;;;;;;18.45;26.43;100787.69;5020317;28;20034;-79
2022/04/11 08:47:25;;;;;;;11.27;2.65;;;;;;;17.98;27.70;100790.19;4997741;28;20076;-76
2022/04/11 08:49:53;;;;;;;7.25;2.58;;;;;;;17.68;28.48;100786.13;5016522;28;20033;-74
2022/04/11 08:52:26;;;;;;;27.27;4.85;;;;;;;17.03;29.72;100793.84;5033627;28;20482;-74
2022/04/11 08:54:53;;;;;;;19.35;3.25;;;;;;;16.69;31.02;100798.53;5014326;28;20112;-75
2022/04/11 08:57:22;;;;;;;10.13;2.78;;;;;;;16.34;30.70;100802.38;5013811;28;20068;-77
2022/04/11 08:59:52;;;;;;;10.68;2.33;;;;;;;15.83;32.11;100797.38;4999815;28;20038;-74
2022/04/11 09:02:18;;;;;;;5.72;1.95;;;;;;;15.71;32.54;100798.50;5000044;28;20083;-74
2022/04/11 09:04:55;;;;;;;4.95;1.92;;;;;;;15.93;32.01;100803.75;5014260;28;20026;-74
2022/04/11 09:07:21;;;;;;;9.65;2.63;;;;;;;16.00;31.73;100806.16;4997109;28;20128;-76
2022/04/11 09:09:46;;;;;;;7.13;2.85;;;;;;;15.62;31.59;100789.25;5013437;28;20534;-74
2022/04/11 09:12:14;;;;;;;10.55;2.42;;;;;;;15.57;32.08;100792.84;5014143;28;20026;-74
2022/04/11 09:14:42;;;;;;;7.75;2.80;;;;;;;15.54;32.37;100798.28;5012291;28;20029;-74
2022/04/11 09:17:09;;;;;;;8.85;2.70;;;;;;;15.40;33.26;100796.22;5012694;28;20446;-74
2022/04/11 09:19:36;;;;;;;6.30;2.90;;;;;;;14.91;32.59;100785.59;5013652;28;20049;-73
2022/04/11 09:22:03;;;;;;;9.32;2.83;;;;;;;14.49;33.57;100783.09;5010811;28;20117;-75
2022/04/11 09:24:31;;;;;;;7.88;2.58;;;;;;;14.43;33.83;100796.53;5012687;28;20494;-76
2022/04/11 09:26:57;;;;;;;7.78;2.53;;;;;;;14.31;34.01;100791.81;5011471;28;20057;-75
2022/04/11 09:29:43;;;;;;;12.02;2.35;;;;;;;13.96;34.63;100794.53;5012846;28;20019;-74
2022/04/11 09:32:09;;;;;;;10.10;3.10;;;;;;;13.69;34.43;100798.44;5010565;28;20033;-75
2022/04/11 09:34:35;;;;;;;9.63;2.55;;;;;;;13.54;34.88;100793.94;5012924;28;20022;-74
2022/04/11 09:37:02;;;;;;;5.57;2.10;;;;;;;13.43;34.71;100787.97;4995046;28;20478;-75
2022/04/11 09:39:33;;;;;;;11.98;2.85;;;;;;;13.44;35.21;100793.22;5011923;28;20046;-75
2022/04/11 09:42:03;;;;;;;11.73;3.20;;;;;;;13.55;35.00;100795.53;4996850;28;20026;-75
2022/04/11 09:44:34;;;;;;;8.27;2.40;;;;;;;13.66;35.20;100790.84;5012254;28;20430;-74
2022/04/11 09:47:04;;;;;;;9.73;3.25;;;;;;;13.91;34.85;100783.00;5012251;28;20063;-75
2022/04/11 09:49:32;;;;;;;4.80;2.55;;;;;;;14.14;34.64;100785.81;5014730;28;20099;-84
2022/04/11 09:52:06;;;;;;;6.28;1.70;;;;;;;14.02;34.32;100784.00;4997004;28;20431;-85
2022/04/11 09:54:42;;;;;;;1.83;1.25;;;;;;;13.66;34.53;100782.25;5014819;28;20036;-84
2022/04/11 09:57:36;;;;;;;5.25;1.65;;;;;;;14.76;35.21;100767.63;5013438;28;20032;-84
2022/04/11 10:00:04;;;;;;;4.93;1.75;;;;;;;15.34;32.99;100754.41;5013668;28;20054;-84
2022/04/11 10:02:34;;;;;;;7.55;1.85;;;;;;;15.57;31.47;100761.25;5013781;28;20379;-85
2022/04/11 10:05:14;;;;;;;4.00;1.63;;;;;;;15.38;30.67;100770.13;5012418;28;20033;-84
2022/04/11 10:07:40;;;;;;;11.82;2.85;;;;;;;15.17;31.75;100759.09;5013957;28;20032;-83
2022/04/11 10:10:08;;;;;;;5.85;1.90;;;;;;;14.93;32.14;100750.69;5013798;28;20104;-84
2022/04/11 10:12:35;;;;;;;10.15;2.13;;;;;;;14.94;32.04;100764.53;5012974;28;20033;-84
2022/04/11 10:15:01;;;;;;;9.27;2.38;;;;;;;14.96;31.85;100758.28;5012796;28;20014;-84
2022/04/11 10:17:27;;;;;;;9.13;1.67;;;;;;;15.02;31.30;100762.03;5011632;28;20092;-83
2022/04/11 10:19:53;;;;;;;6.95;1.90;;;;;;;15.20;31.46;100760.97;5013020;28;20080;-85
2022/04/11 10:22:26;;;;;;;5.25;1.95;;;;;;;15.32;30.84;100754.09;4996984;28;20129;-85
2022/04/11 10:25:20;;;;;;;11.43;2.25;;;;;;;15.61;30.12;100748.25;5014765;28;20033;-85
2022/04/11 10:28:27;;;;;;;9.57;3.10;;;;;;;15.53;29.18;100744.25;5012686;28;20104;-85
2022/04/11 10:31:34;;;;;;;8.43;2.15;;;;;;;15.55;29.04;100738.78;5016546;28;20044;-86
2022/04/11 10:34:01;;;;;;;8.27;2.30;;;;;;;15.52;30.88;100740.59;5002894;28;20029;-85
2022/04/11 10:36:42;;;;;;;7.05;1.77;;;;;;;15.49;30.14;100740.78;5021330;28;20132;-84
2022/04/11 10:39:17;;;;;;;4.43;1.77;;;;;;;15.24;30.47;100750.09;4984240;28;20034;-85
2022/04/11 10:41:55;;;;;;;4.00;1.73;;;;;;;15.02;30.42;100748.47;5016766;28;20077;-85
2022/04/11 10:44:36;;;;;;;5.85;3.22;;;;;;;14.82;30.90;100733.28;5017972;28;20387;-85
2022/04/11 10:47:09;;;;;;;4.72;2.00;;;;;;;14.73;31.88;100753.50;5017518;28;20053;-85
2022/04/11 10:49:50;;;;;;;11.82;2.10;;;;;;;14.27;33.99;100748.25;5018071;28;20109;-85
2022/04/11 10:52:36;;;;;;;4.15;1.92;;;;;;;13.19;37.71;100763.00;5015920;28;20060;-85
2022/04/11 10:55:11;;;;;;;3.53;1.77;;;;;;;12.44;39.23;100774.44;4999783;28;20076;-84
2022/04/11 10:57:55;;;;;;;6.18;2.13;;;;;;;11.72;41.69;100765.97;5017574;28;20025;-85
2022/04/11 11:00:32;;;;;;;3.95;1.50;;;;;;;11.54;41.13;100778.97;5014327;28;20045;-85
2022/04/11 11:03:04;;;;;;;3.22;1.58;;;;;;;11.23;40.56;100772.56;5015743;28;20036;-85
2022/04/11 11:05:36;;;;;;;4.40;1.77;;;;;;;11.52;40.88;100764.38;5017378;28;20030;-85
2022/04/11 11:08:15;;;;;;;3.97;1.38;;;;;;;11.54;39.81;100763.91;5017927;28;20036;-84
2022/04/11 11:10:45;;;;;;;3.67;1.58;;;;;;;11.83;39.26;100763.47;5015866;28;20032;-86
2022/04/11 11:13:39;;;;;;;3.53;1.38;;;;;;;12.03;40.68;100755.19;5017373;28;20076;-85
2022/04/11 11:16:12;;;;;;;3.80;1.33;;;;;;;12.31;39.25;100755.91;5017384;28;20024;-84
2022/04/11 11:18:51;;;;;;;4.07;1.40;;;;;;;12.56;37.71;100755.53;5020580;28;20056;-85
2022/04/11 11:21:51;;;;;;;5.88;1.70;;;;;;;12.39;39.30;100755.09;5018503;28;20034;-86
2022/04/11 11:24:18;;;;;;;3.63;1.80;;;;;;;12.20;36.84;100747.03;4998592;28;20026;-86
2022/04/11 11:26:52;;;;;;;12.43;2.55;;;;;;;12.67;36.48;100755.00;5013871;28;20053;-85
2022/04/11 11:29:34;;;;;;;3.08;1.50;;;;;;;12.89;35.25;100749.81;5017067;28;20040;-85
2022/04/11 11:32:05;;;;;;;3.03;1.70;;;;;;;13.14;34.95;100742.84;5016850;28;20026;-86